Time;durP1;ratioP1;P1;durP2;ratioP2;P2;SDS_P1;SDS_P2;PMS_P1;PMS_P2;Temp;Humidity;BMP_temperature;BMP_pressure;BME280_temperature;BME280_humidity;BME280_pressure;Samples;Min_cycle;Max_cycle;Signal;HPM_P1;HPM_P2
2021/09/19 00:01:39;;;;;;;45.83;7.75;;;;;;;15.08;100.00;99876.84;1724293;81;20971;-55
2021/09/19 00:04:05;;;;;;;36.77;6.42;;;;;;;15.09;100.00;99875.92;1723160;83;20940;-54
2021/09/19 00:06:33;;;;;;;31.68;6.35;;;;;;;15.11;100.00;99884.95;1698373;84;20944;-51
2021/09/19 00:09:02;;;;;;;20.57;5.12;;;;;;;15.10;100.00;99877.61;1670606;84;20984;-52
2021/09/19 00:11:29;;;;;;;30.90;6.08;;;;;;;15.11;100.00;99874.09;1661294;84;21483;-55
2021/09/19 00:13:57;;;;;;;24.80;6.15;;;;;;;15.11;100.00;99874.53;1703345;84;20929;-54
2021/09/19 00:16:23;;;;;;;26.05;5.58;;;;;;;15.10;100.00;99886.73;1675219;85;21015;-53
2021/09/19 00:18:51;;;;;;;20.35;5.42;;;;;;;15.08;100.00;99886.79;1741497;82;21483;-53
2021/09/19 00:21:19;;;;;;;20.82;5.65;;;;;;;15.08;100.00;99882.88;1741363;81;21011;-55
2021/09/19 00:23:46;;;;;;;23.05;6.17;;;;;;;15.09;100.00;99875.92;1740828;82;20940;-56
2021/09/19 00:26:14;;;;;;;10.82;5.70;;;;;;;15.10;100.00;99878.91;1741254;82;20944;-52
2021/09/19 00:28:42;;;;;;;19.27;5.92;;;;;;;15.11;100.00;99875.83;1740992;82;20976;-53
2021/09/19 00:31:08;;;;;;;12.07;5.65;;;;;;;15.11;100.00;99886.27;1740735;81;21141;-52
2021/09/19 00:33:35;;;;;;;13.13;6.15;;;;;;;15.08;100.00;99871.63;1740873;82;20866;-56
2021/09/19 00:36:02;;;;;;;10.32;5.95;;;;;;;15.06;100.00;99874.77;1740918;82;20948;-54
2021/09/19 00:38:29;;;;;;;8.95;4.55;;;;;;;15.06;100.00;99881.28;1740991;82;21521;-55
2021/09/19 00:40:55;;;;;;;9.40;3.92;;;;;;;15.04;100.00;99880.51;1741031;82;21510;-52
2021/09/19 00:43:22;;;;;;;14.53;5.22;;;;;;;14.99;100.00;99878.55;1713733;82;21016;-52
2021/09/19 00:45:49;;;;;;;7.72;4.70;;;;;;;14.96;100.00;99868.27;1740737;82;21498;-52
2021/09/19 00:48:15;;;;;;;18.48;5.97;;;;;;;14.94;100.00;99867.05;1740829;82;21011;-54
2021/09/19 00:50:42;;;;;;;16.35;5.40;;;;;;;14.93;100.00;99866.20;1740762;82;20992;-54
2021/09/19 00:53:08;;;;;;;13.83;5.00;;;;;;;14.92;100.00;99857.16;1740803;82;20940;-53
2021/09/19 00:55:35;;;;;;;12.03;4.60;;;;;;;14.90;100.00;99862.88;1740864;82;21093;-53
2021/09/19 00:58:04;;;;;;;15.78;5.17;;;;;;;14.87;100.00;99865.18;1740664;82;21423;-55
2021/09/19 01:00:32;;;;;;;12.50;5.33;;;;;;;14.86;100.00;99867.84;1714592;82;20897;-54
2021/09/19 01:02:59;;;;;;;13.53;5.22;;;;;;;14.84;100.00;99866.63;1740829;82;21487;-53
2021/09/19 01:05:26;;;;;;;8.33;5.37;;;;;;;14.81;100.00;99861.56;1741076;82;20870;-53
2021/09/19 01:07:53;;;;;;;13.48;5.83;;;;;;;14.76;100.00;99862.20;1740939;82;21078;-54
2021/09/19 01:10:22;;;;;;;11.55;5.83;;;;;;;14.76;100.00;99859.59;1730112;81;21477;-53
2021/09/19 01:12:53;;;;;;;10.78;7.20;;;;;;;14.74;100.00;99857.08;1749047;81;20865;-53
2021/09/19 01:15:22;;;;;;;15.68;7.47;;;;;;;14.72;100.00;99864.56;1749820;80;21526;-53
2021/09/19 01:17:50;;;;;;;14.95;7.37;;;;;;;14.70;100.00;99867.66;1722643;82;21374;-52
2021/09/19 01:20:17;;;;;;;10.28;6.50;;;;;;;14.69;100.00;99867.28;1749735;82;21070;-54
2021/09/19 01:23:05;;;;;;;12.33;6.37;;;;;;;14.69;100.00;99867.28;1749648;82;20925;-52
2021/09/19 01:25:33;;;;;;;14.45;6.55;;;;;;;14.70;100.00;99863.76;1740057;82;20853;-53
2021/09/19 01:28:03;;;;;;;15.40;7.08;;;;;;;14.66;100.00;99866.98;1749818;82;20897;-55
2021/09/19 01:30:29;;;;;;;14.87;6.00;;;;;;;14.64;100.00;99876.15;1749664;82;21011;-53
2021/09/19 01:32:56;;;;;;;15.72;7.33;;;;;;;14.63;100.00;99873.16;1750187;82;21118;-54
2021/09/19 01:35:22;;;;;;;16.85;6.97;;;;;;;14.65;100.00;99871.33;1749615;82;20921;-52
2021/09/19 01:37:49;;;;;;;17.12;6.78;;;;;;;14.66;100.00;99868.28;1749747;82;20999;-53
2021/09/19 01:40:16;;;;;;;12.90;6.90;;;;;;;14.68;100.00;99865.59;1749863;82;20932;-52
2021/09/19 01:42:44;;;;;;;9.28;6.33;;;;;;;14.68;100.00;99866.89;1749954;80;20925;-55
2021/09/19 01:45:11;;;;;;;10.23;6.35;;;;;;;14.68;100.00;99865.15;1749936;80;21227;-52
2021/09/19 01:47:37;;;;;;;13.58;6.78;;;;;;;14.69;100.00;99875.09;1749889;82;21398;-53
2021/09/19 01:50:07;;;;;;;13.55;6.92;;;;;;;14.68;100.00;99878.17;1749632;82;21577;-53
2021/09/19 01:52:35;;;;;;;18.07;7.80;;;;;;;14.68;100.00;99876.01;1749772;81;20900;-53
2021/09/19 01:55:02;;;;;;;16.25;7.87;;;;;;;14.68;100.00;99874.27;1749705;81;20964;-52
2021/09/19 01:57:29;;;;;;;11.60;6.37;;;;;;;14.71;100.00;99874.59;1749909;82;21172;-55
2021/09/19 01:59:56;;;;;;;14.20;7.03;;;;;;;14.72;100.00;99865.87;1750041;82;20908;-53
2021/09/19 02:02:24;;;;;;;17.00;7.08;;;;;;;14.72;100.00;99869.77;1749581;82;21505;-56
2021/09/19 02:04:54;;;;;;;14.85;7.50;;;;;;;14.73;100.00;99855.83;1749645;82;21434;-54
2021/09/19 02:07:22;;;;;;;12.30;7.70;;;;;;;14.75;100.00;99855.30;1722610;82;20971;-53
2021/09/19 02:09:50;;;;;;;18.62;9.00;;;;;;;14.76;100.00;99865.67;1749923;82;21414;-53
2021/09/19 02:12:17;;;;;;;13.18;7.90;;;;;;;14.74;100.00;99863.59;1749549;82;20897;-53
2021/09/19 02:14:45;;;;;;;16.73;8.30;;;;;;;14.72;100.00;99871.08;1722407;82;21018;-54
2021/09/19 02:17:12;;;;;;;14.15;7.97;;;;;;;14.70;100.00;99867.66;1749663;82;20952;-55
2021/09/19 02:19:41;;;;;;;17.82;7.65;;;;;;;14.70;100.00;99868.97;1749751;82;20968;-53
2021/09/19 02:22:11;;;;;;;16.15;9.85;;;;;;;14.72;100.00;99881.50;1749697;82;20944;-54
2021/09/19 02:24:39;;;;;;;21.23;10.43;;;;;;;14.72;100.00;99881.50;1749455;82;21560;-54
2021/09/19 02:27:08;;;;;;;20.60;9.48;;;;;;;14.71;100.00;99883.27;1749014;82;21007;-54
2021/09/19 02:29:36;;;;;;;33.78;11.43;;;;;;;14.72;100.00;99890.17;1749567;81;20960;-52
2021/09/19 02:32:04;;;;;;;27.98;10.85;;;;;;;14.73;100.00;99890.56;1749602;80;20873;-53
2021/09/19 02:34:31;;;;;;;42.98;12.10;;;;;;;14.76;100.00;99888.25;1749829;82;21129;-53
2021/09/19 02:36:59;;;;;;;50.30;14.60;;;;;;;14.77;100.00;99893.41;1750164;82;20905;-55
2021/09/19 02:39:25;;;;;;;38.38;14.68;;;;;;;14.78;100.00;99886.45;1749660;82;20916;-53
2021/09/19 02:41:53;;;;;;;70.62;16.65;;;;;;;14.78;100.00;99892.49;1749603;82;20931;-54
2021/09/19 02:44:21;;;;;;;32.90;13.10;;;;;;;14.76;100.00;99887.81;1749869;82;20971;-53
2021/09/19 02:46:48;;;;;;;39.80;14.10;;;;;;;14.76;100.00;99885.65;1749810;82;21527;-54
2021/09/19 02:49:17;;;;;;;39.15;15.23;;;;;;;14.74;100.00;99890.08;1749734;80;20959;-55
2021/09/19 02:51:45;;;;;;;23.00;13.68;;;;;;;14.70;100.00;99885.45;1749685;82;20849;-55
2021/09/19 02:54:12;;;;;;;25.62;13.70;;;;;;;14.70;100.00;99890.67;1749499;82;20972;-55
2021/09/19 02:56:40;;;;;;;25.23;14.35;;;;;;;14.68;100.00;99891.64;1749760;82;20971;-52
2021/09/19 02:59:08;;;;;;;26.45;15.63;;;;;;;14.70;100.00;99895.02;1749643;82;20920;-55
2021/09/19 03:01:36;;;;;;;17.02;12.70;;;;;;;14.69;100.00;99888.98;1749741;82;20897;-55
2021/09/19 03:04:02;;;;;;;21.00;13.98;;;;;;;14.69;100.00;99893.33;1749619;82;21462;-56
2021/09/19 03:06:30;;;;;;;24.87;14.18;;;;;;;14.67;100.00;99890.81;1721867;82;20904;-53
2021/09/19 03:08:58;;;;;;;15.50;13.90;;;;;;;14.65;100.00;99889.56;1722481;82;20874;-55
2021/09/19 03:11:25;;;;;;;16.77;14.58;;;;;;;14.63;100.00;99886.63;1749694;81;21247;-55
2021/09/19 03:13:53;;;;;;;18.07;15.83;;;;;;;14.59;100.00;99882.02;1749767;82;20884;-54
2021/09/19 03:16:21;;;;;;;27.10;16.52;;;;;;;14.55;100.00;99878.31;1749745;82;20991;-56
2021/09/19 03:18:49;;;;;;;35.92;17.12;;;;;;;14.50;100.00;99874.59;1749648;82;20957;-56
2021/09/19 03:21:16;;;;;;;17.02;15.18;;;;;;;14.49;100.00;99880.72;1749821;81;20996;-55
2021/09/19 03:23:43;;;;;;;21.93;16.60;;;;;;;14.48;100.00;99872.52;1749529;81;21580;-53
2021/09/19 03:26:11;;;;;;;22.80;16.00;;;;;;;14.47;100.00;99879.50;1749635;81;21034;-54
2021/09/19 03:28:40;;;;;;;18.90;15.38;;;;;;;14.47;100.00;99874.73;1749650;82;20983;-56
2021/09/19 03:31:07;;;;;;;23.35;16.50;;;;;;;14.47;100.00;99881.25;1749520;80;21509;-53
2021/09/19 03:33:35;;;;;;;34.95;16.80;;;;;;;14.45;100.00;99886.98;1749721;82;21411;-55
2021/09/19 03:36:01;;;;;;;51.20;17.35;;;;;;;14.47;100.00;99892.52;1750057;82;21105;-56
2021/09/19 03:38:29;;;;;;;43.63;16.87;;;;;;;14.49;100.00;99897.64;1749539;80;20936;-56
2021/09/19 03:40:56;;;;;;;26.82;15.48;;;;;;;14.51;100.00;99907.09;1749868;82;20877;-55
2021/09/19 03:43:22;;;;;;;16.60;13.35;;;;;;;14.54;100.00;99903.97;1749798;81;20983;-56
2021/09/19 03:45:49;;;;;;;19.32;12.70;;;;;;;14.55;100.00;99903.91;1749890;82;20929;-54
2021/09/19 03:48:17;;;;;;;15.93;11.45;;;;;;;14.58;100.00;99908.98;1721882;82;21270;-53
2021/09/19 03:50:44;;;;;;;23.12;11.70;;;;;;;14.59;100.00;99909.37;1749652;82;20849;-53
2021/09/19 03:53:11;;;;;;;44.63;13.60;;;;;;;14.57;100.00;99907.30;1749634;82;20889;-52
2021/09/19 03:55:38;;;;;;;28.25;13.22;;;;;;;14.55;100.00;99913.03;1749663;81;21478;-52
2021/09/19 03:58:05;;;;;;;23.22;12.05;;;;;;;14.54;100.00;99915.24;1749825;82;20984;-52
2021/09/19 04:00:31;;;;;;;21.68;12.25;;;;;;;14.54;100.00;99919.15;1749898;80;21136;-54
2021/09/19 04:02:58;;;;;;;17.65;13.48;;;;;;;14.57;100.00;99914.24;1749654;82;21003;-56
2021/09/19 04:05:24;;;;;;;18.35;12.78;;;;;;;14.58;100.00;99912.89;1749898;82;20929;-51
2021/09/19 04:07:51;;;;;;;29.63;14.43;;;;;;;14.61;100.00;99912.75;1750035;82;20944;-54
2021/09/19 04:10:17;;;;;;;21.65;13.80;;;;;;;14.62;100.00;99905.77;1749828;82;20924;-54
2021/09/19 04:12:44;;;;;;;27.55;13.95;;;;;;;14.63;100.00;99910.92;1749725;81;21182;-52
2021/09/19 04:15:13;;;;;;;42.30;17.05;;;;;;;14.64;100.00;99910.01;1749734;82;21010;-53
2021/09/19 04:17:41;;;;;;;45.63;14.93;;;;;;;14.66;100.00;99915.99;1749897;82;21019;-54
2021/09/19 04:20:10;;;;;;;38.67;15.10;;;;;;;14.66;100.00;99914.69;1749819;80;20980;-53
2021/09/19 04:22:38;;;;;;;31.25;16.67;;;;;;;14.68;100.00;99917.69;1749844;82;21210;-54
2021/09/19 04:25:08;;;;;;;51.05;16.48;;;;;;;14.71;100.00;99920.18;1749813;82;20936;-56
2021/09/19 04:27:36;;;;;;;40.67;14.33;;;;;;;14.77;100.00;99914.69;1749689;82;20932;-52
2021/09/19 04:30:05;;;;;;;50.28;15.75;;;;;;;14.81;100.00;99914.97;1749750;82;20955;-54
2021/09/19 04:32:31;;;;;;;51.28;17.15;;;;;;;14.81;100.00;99916.27;1749784;82;20984;-56
2021/09/19 04:34:58;;;;;;;40.15;14.73;;;;;;;14.79;100.00;99915.50;1749842;82;20960;-53
2021/09/19 04:37:27;;;;;;;30.68;14.65;;;;;;;14.80;100.00;99915.88;1749902;82;20968;-53
2021/09/19 04:39:54;;;;;;;35.92;13.72;;;;;;;14.79;100.00;99918.10;1749714;81;20881;-53
2021/09/19 04:42:22;;;;;;;30.88;12.53;;;;;;;14.83;100.00;99917.48;1749790;80;20877;-53
2021/09/19 04:44:49;;;;;;;36.33;12.98;;;;;;;14.86;100.00;99913.00;1749715;80;20929;-52
2021/09/19 04:47:15;;;;;;;22.58;12.80;;;;;;;14.91;100.00;99911.02;1750107;80;20964;-55
2021/09/19 04:49:42;;;;;;;20.23;13.75;;;;;;;14.98;100.00;99921.16;1749789;82;21236;-55
2021/09/19 04:52:10;;;;;;;24.82;11.55;;;;;;;15.04;100.00;99915.70;1721834;82;21513;-53
2021/09/19 04:54:37;;;;;;;11.30;10.25;;;;;;;15.12;100.00;99914.88;1749846;82;21374;-53
2021/09/19 04:57:04;;;;;;;14.30;9.93;;;;;;;15.23;100.00;99919.59;1749969;82;21529;-55
2021/09/19 04:59:30;;;;;;;12.10;10.48;;;;;;;15.30;100.00;99915.78;1749680;82;21067;-53
2021/09/19 05:01:57;;;;;;;12.40;11.10;;;;;;;15.35;100.00;99912.96;1750165;82;21144;-53
2021/09/19 05:04:23;;;;;;;13.62;11.53;;;;;;;15.39;100.00;99906.68;1722125;82;20877;-54
2021/09/19 05:06:52;;;;;;;14.73;11.15;;;;;;;15.39;100.00;99913.20;1749735;80;21513;-53
2021/09/19 05:09:18;;;;;;;11.03;9.90;;;;;;;15.38;100.00;99907.60;1749818;82;20959;-54
2021/09/19 05:11:46;;;;;;;9.98;9.05;;;;;;;15.35;100.00;99912.48;1749781;82;20909;-54
2021/09/19 05:14:14;;;;;;;8.93;8.03;;;;;;;15.34;100.00;99913.88;1736116;81;20949;-54
2021/09/19 05:16:42;;;;;;;9.73;8.43;;;;;;;15.33;100.00;99911.72;1735709;82;20977;-56
2021/09/19 05:19:10;;;;;;;12.15;8.50;;;;;;;15.33;100.00;99912.19;1735815;82;20996;-53
2021/09/19 05:21:38;;;;;;;8.83;8.00;;;;;;;15.37;100.00;99911.95;1735781;82;21509;-54
2021/09/19 05:24:05;;;;;;;8.73;7.87;;;;;;;15.40;100.00;99921.41;1735710;81;21360;-53
2021/09/19 05:26:33;;;;;;;10.48;7.67;;;;;;;15.43;100.00;99919.95;1735788;82;20882;-53
2021/09/19 05:29:00;;;;;;;9.10;7.25;;;;;;;15.43;100.00;99918.66;1735764;82;20925;-55
2021/09/19 05:31:26;;;;;;;11.97;6.65;;;;;;;15.44;100.00;99915.13;1735911;82;20961;-55
2021/09/19 05:33:53;;;;;;;8.65;6.92;;;;;;;15.48;100.00;99914.53;1735458;82;21431;-53
2021/09/19 05:36:19;;;;;;;8.50;7.58;;;;;;;15.48;100.00;99919.27;1735739;82;21624;-53
2021/09/19 05:38:46;;;;;;;7.22;6.53;;;;;;;15.45;100.00;99923.33;1736015;82;21051;-54
2021/09/19 05:41:12;;;;;;;7.37;6.75;;;;;;;15.44;100.00;99921.64;1735772;82;20909;-56
2021/09/19 05:43:40;;;;;;;7.80;6.22;;;;;;;15.46;100.00;99917.20;1735830;82;20909;-55
2021/09/19 05:46:07;;;;;;;6.40;5.90;;;;;;;15.47;100.00;99921.50;1714637;82;21001;-55
2021/09/19 05:48:33;;;;;;;6.20;5.70;;;;;;;15.49;100.00;99927.48;1735852;82;21015;-55
2021/09/19 05:51:00;;;;;;;5.65;5.17;;;;;;;15.54;100.00;99932.97;1735772;82;21185;-55
2021/09/19 05:53:26;;;;;;;7.15;5.72;;;;;;;15.57;100.00;99934.13;1735755;82;20929;-55
2021/09/19 05:55:54;;;;;;;7.65;5.35;;;;;;;15.60;100.00;99935.27;1735708;82;20874;-55
2021/09/19 05:58:21;;;;;;;6.17;5.28;;;;;;;15.63;100.00;99932.52;1714996;82;20902;-54
2021/09/19 06:00:49;;;;;;;4.67;4.37;;;;;;;15.69;100.00;99932.21;1735780;82;20932;-55
2021/09/19 06:03:16;;;;;;;4.75;4.35;;;;;;;15.75;100.00;99933.69;1714447;81;21081;-52
2021/09/19 06:05:44;;;;;;;5.45;5.00;;;;;;;15.83;100.00;99939.84;1735774;82;21442;-53
2021/09/19 06:08:12;;;;;;;4.80;4.37;;;;;;;15.87;100.00;99930.94;1735785;82;21352;-54
2021/09/19 06:10:39;;;;;;;5.60;4.90;;;;;;;15.94;100.00;99930.61;1735714;82;20918;-53
2021/09/19 06:13:07;;;;;;;5.80;4.40;;;;;;;16.02;100.00;99935.42;1735726;82;20925;-54
2021/09/19 06:15:34;;;;;;;5.55;4.90;;;;;;;16.11;100.00;99939.83;1714984;82;21750;-54
2021/09/19 06:18:03;;;;;;;5.00;4.67;;;;;;;16.15;100.00;99938.27;1735615;82;20922;-55
2021/09/19 06:20:29;;;;;;;5.10;4.62;;;;;;;16.21;100.00;99938.43;1735654;82;21011;-53
2021/09/19 06:22:57;;;;;;;7.37;5.45;;;;;;;16.30;100.00;99940.59;1735832;82;20941;-55
2021/09/19 06:25:24;;;;;;;5.65;5.15;;;;;;;16.42;100.00;99936.97;1735906;82;20973;-56
2021/09/19 06:27:52;;;;;;;9.63;4.80;;;;;;;16.60;100.00;99936.47;1735813;81;20925;-54
2021/09/19 06:30:19;;;;;;;4.72;4.33;;;;;;;16.79;100.00;99939.81;1735722;82;20949;-56
2021/09/19 06:32:47;;;;;;;6.28;5.45;;;;;;;16.91;100.00;99944.86;1735729;82;20921;-55
2021/09/19 06:35:15;;;;;;;8.50;5.62;;;;;;;17.00;100.00;99950.09;1735635;82;20949;-56
2021/09/19 06:37:41;;;;;;;7.35;4.78;;;;;;;17.10;100.00;99945.22;1735827;82;20933;-54
2021/09/19 06:40:09;;;;;;;8.73;5.22;;;;;;;17.24;100.00;99945.30;1735802;81;21682;-55
2021/09/19 06:42:36;;;;;;;5.60;5.20;;;;;;;17.40;100.00;99944.47;1715010;82;20936;-54
2021/09/19 06:45:03;;;;;;;6.20;5.70;;;;;;;17.55;100.00;99945.84;1735709;82;21392;-56
2021/09/19 06:47:29;;;;;;;7.90;7.20;;;;;;;17.57;100.00;99946.63;1736037;82;20929;-54
2021/09/19 06:49:56;;;;;;;8.20;7.53;;;;;;;17.54;100.00;99955.48;1735964;81;21467;-57
2021/09/19 06:52:23;;;;;;;27.77;9.18;;;;;;;17.55;100.00;99955.00;1735599;82;21144;-53
2021/09/19 06:54:49;;;;;;;18.15;8.73;;;;;;;17.61;100.00;99950.27;1735885;82;21517;-53
2021/09/19 06:57:17;;;;;;;22.35;11.08;;;;;;;17.59;98.88;99952.62;1735712;82;21510;-56
2021/09/19 06:59:44;;;;;;;19.23;9.90;;;;;;;17.56;98.87;99956.72;1735892;82;21583;-58
2021/09/19 07:02:11;;;;;;;26.68;11.22;;;;;;;17.63;98.81;99949.72;1735780;82;20968;-55
2021/09/19 07:04:38;;;;;;;19.05;11.20;;;;;;;17.72;99.04;99953.60;1735869;82;22013;-56
2021/09/19 07:07:05;;;;;;;11.78;10.58;;;;;;;17.84;98.67;99955.16;1735842;82;21452;-54
2021/09/19 07:09:32;;;;;;;15.83;11.55;;;;;;;17.85;97.14;99954.23;1735923;82;21502;-53
2021/09/19 07:11:59;;;;;;;23.40;11.45;;;;;;;17.84;97.05;99955.16;1735442;81;20893;-56
2021/09/19 07:14:27;;;;;;;24.10;12.25;;;;;;;17.85;96.72;99945.89;1735646;81;20921;-56
2021/09/19 07:16:55;;;;;;;22.45;12.18;;;;;;;17.78;96.15;99951.94;1735708;82;20929;-55
2021/09/19 07:19:21;;;;;;;15.05;11.97;;;;;;;17.65;96.07;99948.34;1735914;82;20925;-54
2021/09/19 07:21:50;;;;;;;14.23;12.23;;;;;;;17.44;96.07;99949.09;1715162;82;20925;-54
2021/09/19 07:24:16;;;;;;;15.58;11.85;;;;;;;17.29;96.33;99954.66;1735833;82;20952;-53
2021/09/19 07:26:42;;;;;;;13.48;11.45;;;;;;;17.17;96.48;99954.41;1736117;82;20992;-55
2021/09/19 07:29:09;;;;;;;18.60;12.20;;;;;;;17.05;96.81;99953.75;1735562;81;21291;-53
2021/09/19 07:31:36;;;;;;;17.77;11.22;;;;;;;17.02;97.36;99953.92;1735648;82;21483;-53
2021/09/19 07:34:03;;;;;;;32.17;12.53;;;;;;;16.95;97.50;99963.37;1735666;81;20937;-55
2021/09/19 07:36:33;;;;;;;25.12;12.37;;;;;;;16.90;97.96;99961.47;1735719;82;21034;-53
2021/09/19 07:39:03;;;;;;;22.52;12.28;;;;;;;16.86;98.30;99961.26;1735852;82;20933;-53
2021/09/19 07:41:29;;;;;;;27.60;13.18;;;;;;;16.88;98.80;99962.47;1739731;81;21794;-55
2021/09/19 07:43:57;;;;;;;30.12;13.15;;;;;;;16.95;99.40;99962.06;1735893;82;21502;-54
2021/09/19 07:46:24;;;;;;;29.82;13.55;;;;;;;17.09;99.59;99963.97;1736069;82;20956;-54
2021/09/19 07:48:50;;;;;;;18.65;11.78;;;;;;;17.24;99.35;99962.78;1715198;82;21499;-55
2021/09/19 07:51:17;;;;;;;15.60;11.80;;;;;;;17.41;98.20;99965.78;1736109;82;21565;-55
2021/09/19 07:53:46;;;;;;;12.15;10.95;;;;;;;17.59;97.98;99963.08;1736116;82;21905;-55
2021/09/19 07:56:12;;;;;;;20.45;10.63;;;;;;;17.58;95.43;99967.94;1677481;82;21486;-57
2021/09/19 07:58:39;;;;;;;12.53;10.85;;;;;;;17.66;96.36;99967.04;1735801;82;21036;-55
2021/09/19 08:01:05;;;;;;;31.05;12.65;;;;;;;17.78;95.84;99965.02;1735835;82;20965;-56
2021/09/19 08:03:32;;;;;;;13.22;11.93;;;;;;;17.89;95.48;99974.06;1735815;82;20937;-55
2021/09/19 08:05:59;;;;;;;12.30;11.05;;;;;;;17.99;94.30;99975.22;1735642;82;21065;-54
2021/09/19 08:08:26;;;;;;;21.85;11.10;;;;;;;18.03;93.57;99971.52;1735787;82;20933;-56
2021/09/19 08:10:52;;;;;;;22.77;11.57;;;;;;;18.00;92.68;99979.52;1736118;82;20976;-54
2021/09/19 08:13:19;;;;;;;13.00;11.18;;;;;;;17.97;93.27;99979.70;1716659;82;20920;-54
2021/09/19 08:15:46;;;;;;;20.80;12.13;;;;;;;17.98;92.31;99974.01;1746136;81;21487;-54
2021/09/19 08:18:13;;;;;;;27.75;12.15;;;;;;;17.94;91.07;99974.64;1746391;82;21780;-56
2021/09/19 08:20:39;;;;;;;45.98;13.30;;;;;;;17.83;90.86;99975.73;1745899;80;20945;-54
2021/09/19 08:23:06;;;;;;;24.52;13.03;;;;;;;17.76;91.27;99969.98;1745996;81;20933;-56
2021/09/19 08:25:33;;;;;;;17.92;12.37;;;;;;;17.73;91.24;99974.91;1746036;81;20983;-54
2021/09/19 08:28:00;;;;;;;33.23;15.03;;;;;;;17.72;91.49;99971.09;1746161;82;21023;-55
2021/09/19 08:30:26;;;;;;;19.67;13.40;;;;;;;17.76;91.83;99970.81;1746432;81;21091;-55
2021/09/19 08:32:53;;;;;;;65.15;15.85;;;;;;;17.85;92.35;99974.69;1746148;82;21026;-52
2021/09/19 08:35:20;;;;;;;25.68;15.58;;;;;;;17.96;92.24;99966.23;1745967;81;21513;-56
2021/09/19 08:37:48;;;;;;;18.42;15.32;;;;;;;18.07;91.88;99964.34;1746025;81;20940;-55
2021/09/19 08:40:14;;;;;;;18.77;16.37;;;;;;;18.32;91.07;99962.45;1746211;82;20877;-53
2021/09/19 08:42:41;;;;;;;16.02;14.07;;;;;;;18.60;90.49;99962.13;1746418;82;21474;-54
2021/09/19 08:45:10;;;;;;;17.55;15.28;;;;;;;18.87;89.64;99960.53;1746199;82;21575;-53
2021/09/19 08:47:36;;;;;;;21.17;15.60;;;;;;;19.10;88.18;99958.67;1746021;82;20932;-55
2021/09/19 08:50:08;;;;;;;44.38;16.12;;;;;;;19.31;87.12;99954.34;1746289;82;21470;-57
2021/09/19 08:52:36;;;;;;;25.62;15.43;;;;;;;19.67;85.31;99946.35;1746197;82;21546;-56
2021/09/19 08:55:05;;;;;;;20.50;14.60;;;;;;;19.97;82.28;99948.42;1745843;82;21948;-54
2021/09/19 08:57:31;;;;;;;18.95;14.85;;;;;;;20.16;80.97;99942.78;1746115;82;21454;-57
2021/09/19 09:00:02;;;;;;;14.85;13.35;;;;;;;20.31;79.87;99947.97;1716936;82;21596;-55
2021/09/19 09:02:29;;;;;;;13.68;12.37;;;;;;;20.37;78.77;99948.41;1746067;82;21090;-56
2021/09/19 09:04:57;;;;;;;17.12;12.40;;;;;;;20.55;78.49;99942.81;1746191;81;21506;-52
2021/09/19 09:07:24;;;;;;;13.95;12.18;;;;;;;20.69;78.20;99943.17;1716579;82;21005;-53
2021/09/19 09:09:55;;;;;;;15.13;12.63;;;;;;;20.72;76.09;99946.08;1746044;82;20849;-55
2021/09/19 09:12:24;;;;;;;16.27;11.60;;;;;;;20.67;75.76;99948.56;1746144;82;20933;-56
2021/09/19 09:14:54;;;;;;;18.62;13.30;;;;;;;20.51;74.72;99945.29;1738374;80;21000;-53
2021/09/19 09:17:26;;;;;;;15.53;13.70;;;;;;;20.18;75.42;99946.15;1735765;82;20936;-56
2021/09/19 09:19:56;;;;;;;15.72;14.23;;;;;;;20.05;77.78;99948.75;1714853;82;21021;-55
2021/09/19 09:22:30;;;;;;;14.98;13.48;;;;;;;20.07;79.28;99947.35;1735815;82;20922;-56
2021/09/19 09:25:17;;;;;;;16.73;14.13;;;;;;;20.20;76.30;99954.77;1735907;81;20905;-53
2021/09/19 09:27:47;;;;;;;;;;;;;;;20.07;76.00;99952.12;1738313;82;20976;-56
2021/09/19 09:30:18;;;;;;;13.98;12.68;;;;;;;20.20;75.72;99952.14;1735770;81;20130;-56
2021/09/19 09:33:00;;;;;;;17.70;13.05;;;;;;;20.31;73.96;99951.42;1736077;82;21100;-53
2021/09/19 09:35:36;;;;;;;13.03;11.70;;;;;;;20.45;72.55;99957.55;1735907;82;20960;-56
2021/09/19 09:38:22;;;;;;;11.73;10.50;;;;;;;20.61;73.51;99947.67;1735141;82;20925;-56
2021/09/19 09:40:49;;;;;;;13.15;11.95;;;;;;;20.92;72.20;99949.52;1735353;81;20952;-54
2021/09/19 09:43:19;;;;;;;13.08;11.28;;;;;;;21.18;71.01;99947.29;1735798;82;21000;-53
2021/09/19 09:45:49;;;;;;;11.08;9.85;;;;;;;21.41;69.84;99948.29;1735839;82;20968;-53
2021/09/19 09:48:33;;;;;;;18.90;10.88;;;;;;;21.76;68.08;99948.84;1735788;82;20984;-56
2021/09/19 09:51:03;;;;;;;19.73;11.12;;;;;;;22.00;66.29;99951.94;1735720;82;20965;-53
2021/09/19 09:53:30;;;;;;;12.70;10.25;;;;;;;21.99;67.09;99951.57;1735621;82;21454;-57
2021/09/19 09:55:59;;;;;;;16.17;13.10;;;;;;;21.79;67.70;99955.20;1735691;82;20845;-56
2021/09/19 09:58:26;;;;;;;15.63;12.95;;;;;;;21.31;68.98;99959.09;1714584;82;21231;-57
2021/09/19 10:00:54;;;;;;;18.37;12.35;;;;;;;20.98;69.94;99964.49;1735905;82;20926;-52
2021/09/19 10:03:21;;;;;;;14.18;12.73;;;;;;;21.00;71.18;99963.91;1714706;82;21015;-54
2021/09/19 10:05:47;;;;;;;32.08;12.80;;;;;;;21.31;70.15;99965.22;1735719;82;20933;-54
2021/09/19 10:08:14;;;;;;;23.38;12.45;;;;;;;21.58;68.73;99960.69;1715078;82;21004;-54
2021/09/19 10:10:46;;;;;;;14.98;11.15;;;;;;;21.78;68.86;99960.11;1735740;82;20936;-56
2021/09/19 10:13:15;;;;;;;12.88;9.78;;;;;;;21.62;66.68;99968.75;1714605;82;20878;-54
2021/09/19 10:15:43;;;;;;;20.08;10.93;;;;;;;21.31;68.43;99966.53;1748917;81;21521;-53
2021/09/19 10:18:11;;;;;;;13.20;8.63;;;;;;;21.21;68.83;99967.66;1722566;82;20948;-57
2021/09/19 10:20:43;;;;;;;15.23;10.23;;;;;;;21.14;67.85;99974.31;1749842;82;20995;-56
2021/09/19 10:23:27;;;;;;;17.35;9.10;;;;;;;20.83;68.01;99977.75;1749711;82;21455;-54
2021/09/19 10:26:09;;;;;;;32.63;10.13;;;;;;;20.55;69.71;99974.36;1749602;82;20905;-56
2021/09/19 10:28:43;;;;;;;21.65;8.40;;;;;;;20.56;69.05;99969.47;1749772;82;21019;-55
2021/09/19 10:31:17;;;;;;;20.65;8.53;;;;;;;20.56;68.65;99973.41;1749250;82;20991;-54
2021/09/19 10:33:52;;;;;;;74.65;10.13;;;;;;;20.52;69.87;99975.42;1749714;82;20948;-57
2021/09/19 10:36:39;;;;;;;29.45;8.70;;;;;;;20.48;67.64;99977.05;1749505;82;20940;-55
2021/09/19 10:39:39;;;;;;;43.92;11.63;;;;;;;20.06;67.58;99978.02;1746241;82;21414;-56
2021/09/19 10:42:26;;;;;;;25.30;9.18;;;;;;;19.63;69.63;99977.69;1722002;82;20925;-52
2021/09/19 10:44:56;;;;;;;57.50;8.78;;;;;;;19.46;71.12;99981.88;1750022;82;21015;-55
2021/09/19 10:47:31;;;;;;;9.18;6.58;;;;;;;19.65;72.28;99984.98;1749974;81;20928;-56
2021/09/19 10:50:29;;;;;;;15.32;7.00;;;;;;;19.87;69.48;99983.61;1749964;82;21155;-56
2021/09/19 10:53:04;;;;;;;83.90;7.90;;;;;;;20.00;69.33;99973.66;1722060;82;20987;-54
2021/09/19 10:55:53;;;;;;;82.97;8.75;;;;;;;20.23;69.34;99976.06;1749812;81;20896;-56
2021/09/19 10:58:26;;;;;;;15.18;7.00;;;;;;;20.57;68.18;99979.03;1721761;82;21007;-53
2021/09/19 11:01:19;;;;;;;47.70;7.55;;;;;;;20.56;66.76;99965.52;1750166;81;21446;-54
2021/09/19 11:03:47;;;;;;;46.65;7.97;;;;;;;20.56;66.79;99972.59;1749565;82;21152;-53
2021/09/19 11:06:25;;;;;;;17.23;6.12;;;;;;;20.62;66.92;99969.53;1722467;82;21407;-55
2021/09/19 11:08:51;;;;;;;47.40;7.10;;;;;;;20.72;65.70;99968.43;1749112;82;21491;-58
2021/09/19 11:11:23;;;;;;;5.78;5.17;;;;;;;20.83;66.16;99967.23;1749644;82;21562;-53
2021/09/19 11:13:56;;;;;;;5.15;4.75;;;;;;;21.01;64.32;99965.59;1749633;82;21475;-53
2021/09/19 11:16:30;;;;;;;5.45;4.95;;;;;;;21.01;64.62;99962.96;1749669;82;21767;-56
2021/09/19 11:19:00;;;;;;;4.72;4.42;;;;;;;21.07;62.50;99959.89;1750162;82;22372;-56
2021/09/19 11:21:34;;;;;;;4.97;4.60;;;;;;;20.95;64.23;99961.13;1749574;81;20964;-56
2021/09/19 11:24:13;;;;;;;5.70;4.20;;;;;;;20.94;63.28;99957.28;1749782;82;20917;-55